Weather History for KBIV - December, 2013

Change the Weather History Date:

Wednesday, December 11, 2013

  Actual Average Record
Temperature  
Mean Temperature 18 °F 32 °F  
Max Temperature 22 °F 38 °F 59 °F (1949)
Min Temperature 14 °F 27 °F 8 °F (1977)
Degree Days  
Heating Degree Days 47 33  
Month to date heating degree days 397 341  
Since 1 July heating degree days 1633 1564  
Cooling Degree Days 0 0  
Month to date cooling degree days 0 0  
Year to date cooling degree days 813 693  
Moisture  
Dew Point 12 °F    
Average Humidity 75    
Maximum Humidity 91    
Minimum Humidity 59    
Precipitation  
Precipitation 0.04 in 0.08 in 1.30 in (1970)
Month to date precipitation 0.48 1.05  
Year to date precipitation 38.99 35.21  
Sea Level Pressure  
Sea Level Pressure 30.32 in    
Wind  
Wind Speed 11 mph (WNW)    
Max Wind Speed 20 mph    
Max Gust Speed 25 mph    
Visibility 3 miles    
Events Fog , Snow    
T = Trace of Precipitation, MM = Missing Value Source: NWS Daily Summary

Daily Weather History Graph

Daily Weather History Graph

Search for Another Location

Airport or City:

Trip Planner

Search our weather history database for the weather conditions in past years. The results will help you decide how hot, cold, wet, or windy it might be!

Date:

Astronomy

Dec. 11, 2013 Rise Set
Actual Time 8:04 AM EST 5:10 PM EST
Civil Twilight 7:32 AM EST 5:42 PM EST
Nautical Twilight 6:57 AM EST 6:18 PM EST
Astronomical Twilight 6:22 AM EST 6:52 PM EST
Moon 1:49 PM EST (12/11) 2:19 AM EST (12/11)
Length of Visible Light 10h 09m
Length of Day
9h 05m
Waxing Gibbous, 71% of the Moon is Illuminated
Dec 11
Waxing Gibbous
Dec 17
Full
Dec 25
Last Quarter
Jan 1
New
Jan 7
First Quarter

Hourly Weather History & Observations

Time (EST) Temp. Windchill Dew Point Humidity Pressure Visibility Wind Dir Wind Speed Gust Speed Precip Events Conditions
12:53 AM 21.9 °F 7.3 °F 12.9 °F 68% 30.24 in 10.0 mi West 18.4 mph 24.2 mph N/A   Overcast
1:53 AM 21.9 °F 7.8 °F 12.9 °F 68% 30.25 in 10.0 mi West 17.3 mph 24.2 mph N/A   Overcast
2:53 AM 21.9 °F 9.2 °F 12.9 °F 68% 30.26 in 10.0 mi West 13.8 mph 21.9 mph N/A   Overcast
3:53 AM 21.0 °F 8.6 °F 14.0 °F 74% 30.27 in 5.0 mi West 12.7 mph 21.9 mph 0.00 in Snow Light Snow
4:07 AM 21.0 °F 7.6 °F 15.1 °F 78% 30.23 in 2.0 mi West 15.0 mph - 0.00 in Snow Light Snow
4:24 AM 21.0 °F 9.9 °F 15.1 °F 78% 30.23 in 4.0 mi West 10.4 mph - 0.00 in Snow Light Snow
4:35 AM 21.0 °F 8.6 °F 15.1 °F 78% 30.23 in 1.8 mi West 12.7 mph - 0.00 in Snow Light Snow
4:53 AM 21.0 °F 8.6 °F 15.1 °F 78% 30.25 in 2.0 mi West 12.7 mph - 0.00 in Snow Light Snow
5:00 AM 21.0 °F 8.6 °F 16.0 °F 81% 30.22 in 1.8 mi West 12.7 mph - 0.00 in Snow Light Snow
5:05 AM 21.0 °F 9.9 °F 15.1 °F 78% 30.22 in 3.0 mi West 10.4 mph - 0.00 in Snow Light Snow
5:14 AM 21.0 °F 9.9 °F 15.1 °F 78% 30.22 in 1.8 mi West 10.4 mph 17.3 mph 0.00 in Snow Light Snow
5:22 AM 21.0 °F 10.6 °F 16.0 °F 81% 30.22 in 3.0 mi West 9.2 mph - 0.00 in Snow Light Snow
5:35 AM 21.0 °F 9.3 °F 16.0 °F 81% 30.22 in 2.0 mi West 11.5 mph - 0.00 in Snow Light Snow
5:49 AM 21.2 °F 11.7 °F 15.8 °F 80% 30.22 in 1.2 mi West 8.1 mph - 0.00 in Snow Light Snow
5:53 AM 21.0 °F 10.6 °F 17.1 °F 85% 30.25 in 1.0 mi West 9.2 mph - 0.00 in Snow Light Snow
6:05 AM 21.0 °F 12.4 °F 17.1 °F 85% 30.22 in 1.5 mi West 6.9 mph - 0.00 in Snow Light Snow
6:10 AM 21.0 °F 10.6 °F 16.0 °F 81% 30.22 in 1.2 mi West 9.2 mph - 0.00 in Snow Light Snow
6:31 AM 21.0 °F 10.6 °F 17.1 °F 85% 30.22 in 1.8 mi West 9.2 mph - 0.00 in Snow Light Snow
6:46 AM 21.0 °F 11.4 °F 17.1 °F 85% 30.23 in 1.2 mi WNW 8.1 mph - 0.01 in Snow Light Snow
6:51 AM 21.2 °F 11.7 °F 17.6 °F 86% 30.23 in 1.5 mi West 8.1 mph - 0.01 in Snow Light Snow
6:53 AM 21.0 °F 10.6 °F 17.1 °F 85% 30.27 in 1.2 mi West 9.2 mph - 0.01 in Snow Light Snow
7:04 AM 21.0 °F 12.4 °F 18.0 °F 88% 30.23 in 0.8 mi West 6.9 mph - 0.00 in Snow Light Snow
7:12 AM 21.0 °F 11.4 °F 18.0 °F 88% 30.24 in 1.0 mi West 8.1 mph - 0.00 in Snow Light Snow
7:29 AM 21.0 °F 9.9 °F 17.1 °F 85% 30.24 in 1.8 mi West 10.4 mph - 0.00 in Snow Light Snow
7:35 AM 21.0 °F 11.4 °F 18.0 °F 88% 30.25 in 0.8 mi WNW 8.1 mph - 0.01 in Snow Light Snow
7:53 AM 21.0 °F 12.4 °F 18.0 °F 88% 30.29 in 0.8 mi West 6.9 mph - 0.01 in Snow Light Snow
8:03 AM 21.0 °F 8.6 °F 18.0 °F 88% 30.26 in 1.0 mi NW 12.7 mph - 0.01 in Snow Light Snow
8:13 AM 21.0 °F 8.6 °F 18.0 °F 88% 30.26 in 1.0 mi WNW 12.7 mph - 0.01 in Snow Light Snow
8:17 AM 21.0 °F 9.9 °F 18.0 °F 88% 30.26 in 0.8 mi WNW 10.4 mph - 0.01 in Snow Light Snow
8:26 AM 21.0 °F 9.9 °F 18.0 °F 88% 30.26 in 0.5 mi WNW 10.4 mph - 0.01 in Fog , Snow Snow
8:38 AM 21.0 °F 11.4 °F 17.1 °F 85% 30.27 in 0.8 mi WNW 8.1 mph 18.4 mph 0.01 in Snow Light Snow
8:51 AM 21.2 °F 9.5 °F 17.6 °F 86% 30.27 in 0.5 mi WNW 11.5 mph - 0.01 in Fog , Snow Light Snow
8:53 AM 21.9 °F 10.4 °F 18.0 °F 85% 30.31 in 0.5 mi WNW 11.5 mph - 0.01 in Fog , Snow Light Snow
9:32 AM 21.0 °F 10.6 °F 17.1 °F 85% 30.29 in 1.0 mi NW 9.2 mph - 0.01 in Snow Light Snow
9:39 AM 21.0 °F 9.9 °F 17.1 °F 85% 30.29 in 0.5 mi NW 10.4 mph - 0.01 in Fog , Snow Snow
9:51 AM 19.4 °F 7.9 °F 17.6 °F 93% 30.30 in 0.2 mi NW 10.4 mph - 0.01 in Fog , Snow Snow
9:53 AM 19.9 °F 7.9 °F 17.1 °F 89% 30.33 in 0.5 mi NW 11.5 mph - 0.01 in Fog , Snow Snow
9:57 AM 19.9 °F 9.3 °F 16.0 °F 85% 30.30 in 0.8 mi NW 9.2 mph 18.4 mph 0.00 in Snow Light Snow
10:08 AM 21.0 °F 12.4 °F 17.1 °F 85% 30.30 in 1.0 mi NW 6.9 mph - 0.00 in Snow Light Snow
10:22 AM 19.9 °F 8.6 °F 16.0 °F 85% 30.31 in 0.8 mi NNW 10.4 mph - 0.00 in Snow Light Snow
10:39 AM 21.0 °F 8.1 °F 15.1 °F 78% 30.32 in 1.2 mi NNW 13.8 mph 20.7 mph 0.00 in Snow Light Snow
10:43 AM 21.0 °F 8.1 °F 14.0 °F 74% 30.31 in 2.0 mi NW 13.8 mph 20.7 mph 0.00 in Snow Light Snow
10:51 AM 21.2 °F 8.3 °F 15.8 °F 80% 30.32 in 1.2 mi NW 13.8 mph 20.7 mph 0.00 in Snow Light Snow
10:53 AM 19.9 °F 7.3 °F 15.1 °F 81% 30.35 in 1.0 mi NNW 12.7 mph 19.6 mph 0.00 in Snow Light Snow
11:13 AM 19.9 °F 8.6 °F 12.9 °F 74% 30.32 in 2.0 mi NW 10.4 mph 23.0 mph 0.00 in Snow Light Snow
11:23 AM 19.9 °F 6.7 °F 12.9 °F 74% 30.32 in 1.2 mi NW 13.8 mph 21.9 mph 0.00 in Snow Light Snow
11:40 AM 19.9 °F 6.7 °F 12.9 °F 74% 30.32 in 2.0 mi NW 13.8 mph - 0.00 in Snow Light Snow
11:49 AM 19.4 °F 5.5 °F 10.4 °F 68% 30.32 in 7.0 mi NW 15.0 mph 21.9 mph 0.00 in Snow Light Snow
11:53 AM 19.9 °F 7.3 °F 10.9 °F 68% 30.35 in 5.0 mi NW 12.7 mph 21.9 mph 0.00 in Snow Light Snow
12:04 PM 19.0 °F 5.6 °F 12.0 °F 74% 30.32 in 1.8 mi NW 13.8 mph - 0.00 in Snow Light Snow
12:14 PM 19.9 °F 6.2 °F 10.9 °F 68% 30.31 in 3.0 mi NW 15.0 mph 19.6 mph 0.00 in Snow Light Snow
12:29 PM 19.0 °F 5.6 °F 10.9 °F 71% 30.31 in 2.5 mi NNW 13.8 mph 23.0 mph 0.00 in Snow Light Snow
12:38 PM 19.0 °F 4.5 °F 10.0 °F 68% 30.31 in 4.0 mi NW 16.1 mph 21.9 mph 0.00 in Snow Light Snow
12:53 PM 19.0 °F 6.1 °F 10.0 °F 68% 30.35 in 5.0 mi NW 12.7 mph 21.9 mph 0.00 in Snow Light Snow
12:56 PM 19.0 °F 6.1 °F 10.9 °F 71% 30.31 in 1.8 mi NW 12.7 mph 21.9 mph 0.00 in Snow Light Snow
1:03 PM 19.0 °F 6.1 °F 12.9 °F 77% 30.31 in 1.0 mi NW 12.7 mph 19.6 mph 0.00 in Snow Light Snow
1:07 PM 19.0 °F 6.1 °F 10.9 °F 71% 30.31 in 2.0 mi NW 12.7 mph 19.6 mph 0.00 in Snow Light Snow
1:19 PM 18.0 °F 4.2 °F 10.9 °F 74% 30.31 in 1.2 mi NW 13.8 mph - 0.00 in Snow Light Snow
1:42 PM 18.0 °F 4.2 °F 10.0 °F 71% 30.32 in 2.0 mi NW 13.8 mph 21.9 mph 0.00 in Snow Light Snow
1:50 PM 17.6 °F 3.7 °F 6.8 °F 63% 30.32 in 9.0 mi NW 13.8 mph 23.0 mph 0.00 in   Overcast
1:53 PM 18.0 °F 4.8 °F 7.0 °F 62% 30.35 in 9.0 mi WNW 12.7 mph 23.0 mph 0.00 in   Overcast
2:05 PM 18.0 °F 4.8 °F 7.0 °F 62% 30.32 in 5.0 mi West 12.7 mph - 0.00 in Snow Light Snow
2:14 PM 18.0 °F 4.8 °F 9.0 °F 68% 30.32 in 1.5 mi WNW 12.7 mph 21.9 mph 0.00 in Snow Light Snow
2:17 PM 17.1 °F 3.0 °F 10.9 °F 77% 30.32 in 0.8 mi WNW 13.8 mph 21.9 mph 0.00 in Snow Light Snow
2:19 PM 17.1 °F 3.6 °F 12.0 °F 81% 30.33 in 0.5 mi NW 12.7 mph 21.9 mph 0.00 in Snow Snow
2:33 PM 17.1 °F 4.3 °F 10.9 °F 77% 30.33 in 1.0 mi NW 11.5 mph 18.4 mph 0.00 in Snow Light Snow
2:43 PM 17.1 °F 4.3 °F 10.0 °F 74% 30.33 in 2.0 mi NW 11.5 mph 18.4 mph 0.00 in Snow Light Snow
2:45 PM 17.1 °F 3.6 °F 10.0 °F 74% 30.33 in 3.0 mi NW 12.7 mph 20.7 mph 0.00 in Snow Light Snow
2:53 PM 17.1 °F 2.5 °F 7.0 °F 65% 30.37 in 6.0 mi WNW 15.0 mph 20.7 mph 0.00 in Snow Light Snow
3:08 PM 17.1 °F 3.0 °F 6.1 °F 62% 30.33 in 9.0 mi WNW 13.8 mph - 0.00 in   Overcast
3:40 PM 16.0 °F 2.3 °F 7.0 °F 68% 30.35 in 3.0 mi WNW 12.7 mph - 0.00 in Snow Light Snow
3:47 PM 15.8 °F 1.4 °F 8.6 °F 73% 30.35 in 1.8 mi WNW 13.8 mph - 0.00 in Snow Light Snow
3:53 PM 16.0 °F 2.3 °F 9.0 °F 74% 30.40 in 0.8 mi WNW 12.7 mph 19.6 mph 0.00 in Snow Light Snow
3:59 PM 16.0 °F 4.4 °F 9.0 °F 74% 30.36 in 1.5 mi WNW 9.2 mph 18.4 mph 0.00 in Snow Light Snow
4:06 PM 16.0 °F 2.9 °F 9.0 °F 74% 30.36 in 2.0 mi WNW 11.5 mph 19.6 mph 0.00 in Snow Light Snow
4:23 PM 16.0 °F 3.6 °F 7.0 °F 68% 30.37 in 4.0 mi WNW 10.4 mph 20.7 mph 0.00 in Snow Light Snow
4:41 PM 16.0 °F 1.1 °F 6.1 °F 65% 30.37 in 7.0 mi WNW 15.0 mph 20.7 mph 0.00 in Snow Light Snow
4:53 PM 15.1 °F 2.5 °F 7.0 °F 70% 30.41 in 2.5 mi WNW 10.4 mph 20.7 mph 0.00 in Snow Light Snow
5:06 PM 15.1 °F 1.8 °F 7.0 °F 70% 30.38 in 1.5 mi NW 11.5 mph 19.6 mph 0.00 in Snow Light Snow
5:09 PM 15.1 °F 1.8 °F 6.1 °F 68% 30.38 in 2.5 mi NW 11.5 mph 20.7 mph 0.00 in Snow Light Snow
5:14 PM 15.1 °F 1.8 °F 5.0 °F 64% 30.38 in 4.0 mi WNW 11.5 mph 20.7 mph 0.00 in Snow Light Snow
5:28 PM 15.1 °F 1.8 °F 7.0 °F 70% 30.39 in 5.0 mi WNW 11.5 mph 18.4 mph 0.00 in Snow Light Snow
5:51 PM 15.8 °F 2.7 °F 8.6 °F 73% 30.40 in 1.8 mi WNW 11.5 mph 20.7 mph 0.00 in Snow Light Snow
5:53 PM 15.1 °F 3.3 °F 8.1 °F 74% 30.44 in 1.8 mi WNW 9.2 mph 20.7 mph 0.00 in Snow Light Snow
5:57 PM 15.1 °F 1.8 °F 9.0 °F 77% 30.40 in 2.0 mi WNW 11.5 mph 18.4 mph 0.00 in Snow Light Snow
6:00 PM 15.1 °F 1.8 °F 8.1 °F 74% 30.40 in 3.0 mi WNW 11.5 mph - 0.00 in Snow Light Snow
6:12 PM 15.1 °F 1.8 °F 3.9 °F 61% 30.40 in 9.0 mi WNW 11.5 mph - 0.00 in   Overcast
6:53 PM 14.0 °F 5.1 °F 6.1 °F 71% 30.46 in 3.0 mi WNW 5.8 mph - 0.00 in Snow Light Snow
7:00 PM 15.1 °F 3.3 °F 6.1 °F 68% 30.42 in 8.0 mi West 9.2 mph - 0.00 in Snow Light Snow
7:22 PM 15.1 °F 3.3 °F 5.0 °F 64% 30.42 in 9.0 mi WNW 9.2 mph - 0.00 in   Overcast
7:53 PM 15.1 °F 1.8 °F 3.9 °F 61% 30.47 in 10.0 mi WNW 11.5 mph - 0.00 in   Overcast
8:43 PM 15.1 °F 2.5 °F 5.0 °F 64% 30.43 in 5.0 mi West 10.4 mph 18.4 mph 0.00 in Snow Light Snow
8:53 PM 15.1 °F 3.3 °F 3.9 °F 61% 30.48 in 9.0 mi WNW 9.2 mph - 0.00 in   Overcast
9:53 PM 15.1 °F 1.1 °F 3.9 °F 61% 30.48 in 9.0 mi WNW 12.7 mph 17.3 mph 0.00 in Snow Light Snow
10:37 PM 14.0 °F 2.0 °F 6.1 °F 71% 30.44 in 2.0 mi West 9.2 mph - 0.00 in Snow Light Snow
10:44 PM 14.0 °F 1.2 °F 8.1 °F 77% 30.44 in 1.8 mi WNW 10.4 mph - 0.00 in Snow Light Snow
10:48 PM 14.0 °F 2.0 °F 8.6 °F 79% 30.44 in 2.5 mi WNW 9.2 mph 16.1 mph 0.00 in Snow Light Snow
10:51 PM 14.0 °F 2.0 °F 6.8 °F 73% 30.44 in 3.0 mi WNW 9.2 mph 16.1 mph 0.00 in Snow Light Snow
10:53 PM 14.0 °F 2.0 °F 7.0 °F 74% 30.48 in 4.0 mi West 9.2 mph 16.1 mph 0.00 in Snow Light Snow
11:53 PM 14.0 °F 3.9 °F 6.1 °F 71% 30.48 in 8.0 mi NW 6.9 mph - 0.00 in Snow Light Snow